sensor_id;sensor_type;location;lat;lon;timestamp;P1;durP1;ratioP1;P2;durP2;ratioP2
66751;SDS011;53663;42.676;23.238;2023-07-20T00:01:51;14.95;;;3.53;;
66751;SDS011;53663;42.676;23.238;2023-07-20T00:04:16;9.57;;;2.45;;
66751;SDS011;53663;42.676;23.238;2023-07-20T00:06:42;11.13;;;3.08;;
66751;SDS011;53663;42.676;23.238;2023-07-20T00:09:07;19.08;;;3.72;;
66751;SDS011;53663;42.676;23.238;2023-07-20T00:11:35;11.80;;;3.05;;
66751;SDS011;53663;42.676;23.238;2023-07-20T00:14:03;7.35;;;2.80;;
66751;SDS011;53663;42.676;23.238;2023-07-20T00:16:29;13.93;;;3.10;;
66751;SDS011;53663;42.676;23.238;2023-07-20T00:18:54;8.18;;;2.95;;
66751;SDS011;53663;42.676;23.238;2023-07-20T00:21:20;11.27;;;3.13;;
66751;SDS011;53663;42.676;23.238;2023-07-20T00:23:45;11.93;;;3.40;;
66751;SDS011;53663;42.676;23.238;2023-07-20T00:26:11;11.65;;;3.53;;
66751;SDS011;53663;42.676;23.238;2023-07-20T00:28:36;16.15;;;3.55;;
66751;SDS011;53663;42.676;23.238;2023-07-20T00:31:02;7.97;;;3.15;;
66751;SDS011;53663;42.676;23.238;2023-07-20T00:33:28;11.70;;;3.78;;
66751;SDS011;53663;42.676;23.238;2023-07-20T00:35:54;13.13;;;3.63;;
66751;SDS011;53663;42.676;23.238;2023-07-20T00:38:19;7.15;;;3.10;;
66751;SDS011;53663;42.676;23.238;2023-07-20T00:40:47;13.52;;;4.25;;
66751;SDS011;53663;42.676;23.238;2023-07-20T00:43:16;10.23;;;3.00;;
66751;SDS011;53663;42.676;23.238;2023-07-20T00:45:42;22.20;;;3.63;;
66751;SDS011;53663;42.676;23.238;2023-07-20T00:48:09;7.93;;;2.92;;
66751;SDS011;53663;42.676;23.238;2023-07-20T00:50:35;10.52;;;3.20;;
66751;SDS011;53663;42.676;23.238;2023-07-20T00:53:02;12.45;;;2.92;;
66751;SDS011;53663;42.676;23.238;2023-07-20T00:55:31;8.88;;;2.92;;
66751;SDS011;53663;42.676;23.238;2023-07-20T00:57:57;11.07;;;2.95;;
66751;SDS011;53663;42.676;23.238;2023-07-20T01:00:23;14.27;;;3.25;;
66751;SDS011;53663;42.676;23.238;2023-07-20T01:02:50;9.57;;;2.72;;
66751;SDS011;53663;42.676;23.238;2023-07-20T01:05:16;8.32;;;2.80;;
66751;SDS011;53663;42.676;23.238;2023-07-20T01:08:03;11.40;;;3.22;;
66751;SDS011;53663;42.676;23.238;2023-07-20T01:10:43;11.27;;;3.00;;
66751;SDS011;53663;42.676;23.238;2023-07-20T01:13:15;11.00;;;3.45;;
66751;SDS011;53663;42.676;23.238;2023-07-20T01:15:48;8.40;;;3.20;;
66751;SDS011;53663;42.676;23.238;2023-07-20T01:18:14;9.82;;;3.25;;
66751;SDS011;53663;42.676;23.238;2023-07-20T01:20:40;11.60;;;2.97;;
66751;SDS011;53663;42.676;23.238;2023-07-20T01:29:11;7.80;;;3.28;;
66751;SDS011;53663;42.676;23.238;2023-07-20T01:31:54;9.45;;;3.13;;
66751;SDS011;53663;42.676;23.238;2023-07-20T01:34:21;12.43;;;3.20;;
66751;SDS011;53663;42.676;23.238;2023-07-20T01:36:48;9.68;;;2.72;;
66751;SDS011;53663;42.676;23.238;2023-07-20T01:39:17;9.55;;;2.92;;
66751;SDS011;53663;42.676;23.238;2023-07-20T01:41:44;13.60;;;3.55;;
66751;SDS011;53663;42.676;23.238;2023-07-20T01:44:10;11.65;;;3.92;;
66751;SDS011;53663;42.676;23.238;2023-07-20T01:46:37;10.48;;;3.60;;
66751;SDS011;53663;42.676;23.238;2023-07-20T01:49:02;7.20;;;3.08;;
66751;SDS011;53663;42.676;23.238;2023-07-20T01:51:30;12.48;;;4.28;;
66751;SDS011;53663;42.676;23.238;2023-07-20T01:53:56;13.10;;;4.45;;
66751;SDS011;53663;42.676;23.238;2023-07-20T01:56:21;10.73;;;3.58;;
66751;SDS011;53663;42.676;23.238;2023-07-20T01:58:47;13.52;;;3.78;;
66751;SDS011;53663;42.676;23.238;2023-07-20T02:01:12;12.93;;;3.95;;
66751;SDS011;53663;42.676;23.238;2023-07-20T02:03:38;11.00;;;4.47;;
66751;SDS011;53663;42.676;23.238;2023-07-20T02:06:03;13.95;;;3.50;;
66751;SDS011;53663;42.676;23.238;2023-07-20T02:08:30;10.57;;;3.72;;
66751;SDS011;53663;42.676;23.238;2023-07-20T02:10:56;9.55;;;3.38;;
66751;SDS011;53663;42.676;23.238;2023-07-20T02:13:22;11.48;;;3.47;;
66751;SDS011;53663;42.676;23.238;2023-07-20T02:15:47;15.57;;;3.90;;
66751;SDS011;53663;42.676;23.238;2023-07-20T02:18:14;16.55;;;3.97;;
66751;SDS011;53663;42.676;23.238;2023-07-20T02:20:40;10.50;;;3.88;;
66751;SDS011;53663;42.676;23.238;2023-07-20T02:23:06;12.20;;;3.78;;
66751;SDS011;53663;42.676;23.238;2023-07-20T02:25:32;12.70;;;3.67;;
66751;SDS011;53663;42.676;23.238;2023-07-20T02:27:57;10.70;;;3.55;;
66751;SDS011;53663;42.676;23.238;2023-07-20T02:30:24;13.00;;;4.00;;
66751;SDS011;53663;42.676;23.238;2023-07-20T02:32:50;14.60;;;3.53;;
66751;SDS011;53663;42.676;23.238;2023-07-20T02:35:16;9.57;;;3.17;;
66751;SDS011;53663;42.676;23.238;2023-07-20T02:37:41;13.07;;;3.75;;
66751;SDS011;53663;42.676;23.238;2023-07-20T02:40:07;16.90;;;3.78;;
66751;SDS011;53663;42.676;23.238;2023-07-20T02:42:33;18.63;;;3.47;;
66751;SDS011;53663;42.676;23.238;2023-07-20T02:44:59;12.02;;;3.90;;
66751;SDS011;53663;42.676;23.238;2023-07-20T02:47:25;12.30;;;3.67;;
66751;SDS011;53663;42.676;23.238;2023-07-20T02:49:51;9.38;;;3.60;;
66751;SDS011;53663;42.676;23.238;2023-07-20T02:52:16;11.27;;;3.92;;
66751;SDS011;53663;42.676;23.238;2023-07-20T02:54:42;10.85;;;3.65;;
66751;SDS011;53663;42.676;23.238;2023-07-20T02:57:07;12.70;;;4.35;;
66751;SDS011;53663;42.676;23.238;2023-07-20T02:59:33;14.48;;;4.03;;
66751;SDS011;53663;42.676;23.238;2023-07-20T03:01:58;13.27;;;4.05;;
66751;SDS011;53663;42.676;23.238;2023-07-20T03:04:27;11.40;;;4.22;;
66751;SDS011;53663;42.676;23.238;2023-07-20T03:06:52;16.75;;;3.92;;
66751;SDS011;53663;42.676;23.238;2023-07-20T03:09:18;15.75;;;3.97;;
66751;SDS011;53663;42.676;23.238;2023-07-20T03:11:44;11.82;;;4.05;;
66751;SDS011;53663;42.676;23.238;2023-07-20T03:14:10;8.95;;;3.80;;
66751;SDS011;53663;42.676;23.238;2023-07-20T03:16:37;13.70;;;4.07;;
66751;SDS011;53663;42.676;23.238;2023-07-20T03:19:02;14.68;;;4.20;;
66751;SDS011;53663;42.676;23.238;2023-07-20T03:21:29;9.90;;;4.00;;
66751;SDS011;53663;42.676;23.238;2023-07-20T03:23:54;14.60;;;3.42;;
66751;SDS011;53663;42.676;23.238;2023-07-20T03:26:20;12.40;;;3.78;;
66751;SDS011;53663;42.676;23.238;2023-07-20T03:28:46;20.20;;;3.97;;
66751;SDS011;53663;42.676;23.238;2023-07-20T03:31:12;14.15;;;4.05;;
66751;SDS011;53663;42.676;23.238;2023-07-20T03:33:39;18.30;;;4.07;;
66751;SDS011;53663;42.676;23.238;2023-07-20T03:36:05;11.65;;;4.03;;
66751;SDS011;53663;42.676;23.238;2023-07-20T03:38:31;8.45;;;3.50;;
66751;SDS011;53663;42.676;23.238;2023-07-20T03:40:56;29.33;;;5.10;;
66751;SDS011;53663;42.676;23.238;2023-07-20T03:43:23;22.00;;;3.92;;
66751;SDS011;53663;42.676;23.238;2023-07-20T03:45:50;10.65;;;3.50;;
66751;SDS011;53663;42.676;23.238;2023-07-20T03:48:17;9.35;;;3.70;;
66751;SDS011;53663;42.676;23.238;2023-07-20T03:50:47;16.27;;;3.83;;
66751;SDS011;53663;42.676;23.238;2023-07-20T03:53:13;11.48;;;4.20;;
66751;SDS011;53663;42.676;23.238;2023-07-20T03:55:40;14.07;;;4.20;;
66751;SDS011;53663;42.676;23.238;2023-07-20T03:58:07;16.75;;;4.80;;
66751;SDS011;53663;42.676;23.238;2023-07-20T04:00:33;25.98;;;4.78;;
66751;SDS011;53663;42.676;23.238;2023-07-20T04:02:59;22.08;;;4.00;;
66751;SDS011;53663;42.676;23.238;2023-07-20T04:05:25;15.27;;;4.10;;
66751;SDS011;53663;42.676;23.238;2023-07-20T04:07:51;12.45;;;4.85;;
66751;SDS011;53663;42.676;23.238;2023-07-20T04:10:17;24.70;;;4.88;;
66751;SDS011;53663;42.676;23.238;2023-07-20T04:12:43;14.65;;;4.50;;
66751;SDS011;53663;42.676;23.238;2023-07-20T04:15:09;8.80;;;3.97;;
66751;SDS011;53663;42.676;23.238;2023-07-20T04:17:35;15.93;;;4.25;;
66751;SDS011;53663;42.676;23.238;2023-07-20T04:20:00;15.30;;;3.78;;
66751;SDS011;53663;42.676;23.238;2023-07-20T04:22:26;11.75;;;3.30;;
66751;SDS011;53663;42.676;23.238;2023-07-20T04:24:52;11.55;;;3.28;;
66751;SDS011;53663;42.676;23.238;2023-07-20T04:27:18;13.20;;;3.67;;
66751;SDS011;53663;42.676;23.238;2023-07-20T04:29:43;12.88;;;4.03;;
66751;SDS011;53663;42.676;23.238;2023-07-20T04:32:09;13.50;;;3.70;;
66751;SDS011;53663;42.676;23.238;2023-07-20T04:34:35;11.05;;;3.85;;
66751;SDS011;53663;42.676;23.238;2023-07-20T04:37:03;9.48;;;3.60;;
66751;SDS011;53663;42.676;23.238;2023-07-20T04:39:30;16.15;;;3.80;;
66751;SDS011;53663;42.676;23.238;2023-07-20T04:41:56;14.05;;;3.90;;
66751;SDS011;53663;42.676;23.238;2023-07-20T04:44:23;14.77;;;3.70;;
66751;SDS011;53663;42.676;23.238;2023-07-20T04:46:49;12.23;;;3.60;;
66751;SDS011;53663;42.676;23.238;2023-07-20T04:49:15;13.77;;;4.78;;
66751;SDS011;53663;42.676;23.238;2023-07-20T04:51:42;20.30;;;4.47;;
66751;SDS011;53663;42.676;23.238;2023-07-20T04:54:08;16.73;;;4.90;;
66751;SDS011;53663;42.676;23.238;2023-07-20T04:56:36;14.55;;;4.32;;
66751;SDS011;53663;42.676;23.238;2023-07-20T04:59:04;16.63;;;4.30;;
66751;SDS011;53663;42.676;23.238;2023-07-20T05:01:30;15.50;;;4.50;;
66751;SDS011;53663;42.676;23.238;2023-07-20T05:03:55;31.38;;;5.40;;
66751;SDS011;53663;42.676;23.238;2023-07-20T05:06:21;15.30;;;4.32;;
66751;SDS011;53663;42.676;23.238;2023-07-20T05:08:47;20.20;;;4.65;;
66751;SDS011;53663;42.676;23.238;2023-07-20T05:11:12;12.57;;;5.13;;
66751;SDS011;53663;42.676;23.238;2023-07-20T05:13:38;20.50;;;4.75;;
66751;SDS011;53663;42.676;23.238;2023-07-20T05:16:04;15.68;;;4.63;;
66751;SDS011;53663;42.676;23.238;2023-07-20T05:18:30;14.48;;;4.63;;
66751;SDS011;53663;42.676;23.238;2023-07-20T05:20:56;12.05;;;4.35;;
66751;SDS011;53663;42.676;23.238;2023-07-20T05:23:22;15.73;;;4.78;;
66751;SDS011;53663;42.676;23.238;2023-07-20T05:25:53;14.98;;;4.60;;
66751;SDS011;53663;42.676;23.238;2023-07-20T05:28:25;15.77;;;4.40;;
66751;SDS011;53663;42.676;23.238;2023-07-20T05:30:52;13.43;;;4.50;;
66751;SDS011;53663;42.676;23.238;2023-07-20T05:33:19;10.13;;;4.18;;
66751;SDS011;53663;42.676;23.238;2023-07-20T05:35:45;11.70;;;4.10;;
66751;SDS011;53663;42.676;23.238;2023-07-20T05:38:10;10.30;;;4.05;;
66751;SDS011;53663;42.676;23.238;2023-07-20T05:40:40;14.93;;;4.10;;
66751;SDS011;53663;42.676;23.238;2023-07-20T05:43:06;13.75;;;4.10;;
66751;SDS011;53663;42.676;23.238;2023-07-20T05:45:32;17.35;;;4.32;;
66751;SDS011;53663;42.676;23.238;2023-07-20T05:47:57;16.55;;;4.05;;
66751;SDS011;53663;42.676;23.238;2023-07-20T05:50:23;19.00;;;4.43;;
66751;SDS011;53663;42.676;23.238;2023-07-20T05:52:48;14.68;;;4.10;;
66751;SDS011;53663;42.676;23.238;2023-07-20T05:55:14;16.13;;;3.90;;
66751;SDS011;53663;42.676;23.238;2023-07-20T05:57:39;13.88;;;3.95;;
66751;SDS011;53663;42.676;23.238;2023-07-20T06:00:07;15.52;;;3.92;;
66751;SDS011;53663;42.676;23.238;2023-07-20T06:02:39;16.33;;;4.88;;
66751;SDS011;53663;42.676;23.238;2023-07-20T06:05:05;16.83;;;4.50;;
66751;SDS011;53663;42.676;23.238;2023-07-20T06:07:37;15.23;;;4.22;;
66751;SDS011;53663;42.676;23.238;2023-07-20T06:10:03;11.05;;;4.15;;
66751;SDS011;53663;42.676;23.238;2023-07-20T06:12:30;16.65;;;4.35;;
66751;SDS011;53663;42.676;23.238;2023-07-20T06:14:56;14.10;;;4.55;;
66751;SDS011;53663;42.676;23.238;2023-07-20T06:17:22;13.45;;;4.00;;
66751;SDS011;53663;42.676;23.238;2023-07-20T06:19:47;13.82;;;3.75;;
66751;SDS011;53663;42.676;23.238;2023-07-20T06:22:13;18.13;;;4.15;;
66751;SDS011;53663;42.676;23.238;2023-07-20T06:24:38;16.73;;;4.03;;
66751;SDS011;53663;42.676;23.238;2023-07-20T06:27:04;10.07;;;4.53;;
66751;SDS011;53663;42.676;23.238;2023-07-20T06:29:30;12.35;;;3.78;;
66751;SDS011;53663;42.676;23.238;2023-07-20T06:31:56;12.98;;;4.72;;
66751;SDS011;53663;42.676;23.238;2023-07-20T06:34:21;11.82;;;4.38;;
66751;SDS011;53663;42.676;23.238;2023-07-20T06:36:47;10.73;;;3.67;;
66751;SDS011;53663;42.676;23.238;2023-07-20T06:39:12;11.07;;;4.03;;
66751;SDS011;53663;42.676;23.238;2023-07-20T06:41:39;12.65;;;3.50;;
66751;SDS011;53663;42.676;23.238;2023-07-20T06:44:04;13.10;;;4.03;;
66751;SDS011;53663;42.676;23.238;2023-07-20T06:46:30;9.98;;;3.90;;
66751;SDS011;53663;42.676;23.238;2023-07-20T06:48:55;13.20;;;4.10;;
66751;SDS011;53663;42.676;23.238;2023-07-20T06:51:22;12.70;;;3.92;;
66751;SDS011;53663;42.676;23.238;2023-07-20T06:53:47;13.13;;;4.00;;
66751;SDS011;53663;42.676;23.238;2023-07-20T06:56:13;18.42;;;4.55;;
66751;SDS011;53663;42.676;23.238;2023-07-20T06:58:39;13.20;;;4.35;;
66751;SDS011;53663;42.676;23.238;2023-07-20T07:01:05;15.60;;;4.90;;
66751;SDS011;53663;42.676;23.238;2023-07-20T07:03:32;18.33;;;4.65;;
66751;SDS011;53663;42.676;23.238;2023-07-20T07:05:58;20.88;;;6.80;;
66751;SDS011;53663;42.676;23.238;2023-07-20T07:08:23;14.07;;;4.78;;
66751;SDS011;53663;42.676;23.238;2023-07-20T07:10:49;19.20;;;5.32;;
66751;SDS011;53663;42.676;23.238;2023-07-20T07:13:14;22.42;;;7.45;;
66751;SDS011;53663;42.676;23.238;2023-07-20T07:15:39;17.75;;;4.32;;
66751;SDS011;53663;42.676;23.238;2023-07-20T07:18:05;18.00;;;4.63;;
66751;SDS011;53663;42.676;23.238;2023-07-20T07:20:30;18.05;;;5.38;;
66751;SDS011;53663;42.676;23.238;2023-07-20T07:22:56;15.00;;;4.60;;
66751;SDS011;53663;42.676;23.238;2023-07-20T07:25:22;13.07;;;4.10;;
66751;SDS011;53663;42.676;23.238;2023-07-20T07:27:48;20.20;;;4.45;;
66751;SDS011;53663;42.676;23.238;2023-07-20T07:30:13;13.15;;;4.60;;
66751;SDS011;53663;42.676;23.238;2023-07-20T07:32:39;14.23;;;4.63;;
66751;SDS011;53663;42.676;23.238;2023-07-20T07:35:04;16.55;;;5.05;;
66751;SDS011;53663;42.676;23.238;2023-07-20T07:37:30;15.20;;;4.28;;
66751;SDS011;53663;42.676;23.238;2023-07-20T07:39:56;13.55;;;3.85;;
66751;SDS011;53663;42.676;23.238;2023-07-20T07:42:22;14.50;;;3.83;;
66751;SDS011;53663;42.676;23.238;2023-07-20T07:44:48;17.02;;;4.15;;
66751;SDS011;53663;42.676;23.238;2023-07-20T07:47:13;9.32;;;4.50;;
66751;SDS011;53663;42.676;23.238;2023-07-20T07:49:39;13.05;;;4.38;;
66751;SDS011;53663;42.676;23.238;2023-07-20T07:52:05;14.73;;;4.72;;
66751;SDS011;53663;42.676;23.238;2023-07-20T07:54:31;14.80;;;5.07;;
66751;SDS011;53663;42.676;23.238;2023-07-20T07:56:56;11.50;;;3.95;;
66751;SDS011;53663;42.676;23.238;2023-07-20T07:59:22;14.25;;;4.80;;
66751;SDS011;53663;42.676;23.238;2023-07-20T08:01:47;13.57;;;4.72;;
66751;SDS011;53663;42.676;23.238;2023-07-20T08:04:13;20.60;;;4.63;;
66751;SDS011;53663;42.676;23.238;2023-07-20T08:06:39;15.18;;;4.32;;
66751;SDS011;53663;42.676;23.238;2023-07-20T08:09:04;10.63;;;3.80;;
66751;SDS011;53663;42.676;23.238;2023-07-20T08:11:30;19.45;;;4.32;;
66751;SDS011;53663;42.676;23.238;2023-07-20T08:13:58;12.23;;;3.75;;
66751;SDS011;53663;42.676;23.238;2023-07-20T08:16:27;14.43;;;3.50;;
66751;SDS011;53663;42.676;23.238;2023-07-20T08:18:52;17.15;;;3.72;;
66751;SDS011;53663;42.676;23.238;2023-07-20T08:21:18;14.55;;;3.50;;
66751;SDS011;53663;42.676;23.238;2023-07-20T08:23:44;10.68;;;2.88;;
66751;SDS011;53663;42.676;23.238;2023-07-20T08:26:09;7.60;;;2.97;;
66751;SDS011;53663;42.676;23.238;2023-07-20T08:28:35;10.88;;;3.28;;
66751;SDS011;53663;42.676;23.238;2023-07-20T08:31:00;13.20;;;2.70;;
66751;SDS011;53663;42.676;23.238;2023-07-20T08:33:26;8.88;;;2.90;;
66751;SDS011;53663;42.676;23.238;2023-07-20T08:35:54;9.45;;;2.92;;
66751;SDS011;53663;42.676;23.238;2023-07-20T08:38:21;8.82;;;3.38;;
66751;SDS011;53663;42.676;23.238;2023-07-20T08:40:47;16.00;;;3.50;;
66751;SDS011;53663;42.676;23.238;2023-07-20T08:43:13;8.77;;;2.95;;
66751;SDS011;53663;42.676;23.238;2023-07-20T08:45:41;9.15;;;3.10;;
66751;SDS011;53663;42.676;23.238;2023-07-20T08:48:07;9.00;;;3.05;;
66751;SDS011;53663;42.676;23.238;2023-07-20T08:50:34;8.98;;;3.10;;
66751;SDS011;53663;42.676;23.238;2023-07-20T08:53:00;16.23;;;3.38;;
66751;SDS011;53663;42.676;23.238;2023-07-20T08:55:26;11.63;;;3.47;;
66751;SDS011;53663;42.676;23.238;2023-07-20T08:57:53;7.53;;;3.10;;
66751;SDS011;53663;42.676;23.238;2023-07-20T09:00:20;9.70;;;3.00;;
66751;SDS011;53663;42.676;23.238;2023-07-20T09:02:48;19.65;;;3.63;;
66751;SDS011;53663;42.676;23.238;2023-07-20T09:05:16;15.93;;;3.50;;
66751;SDS011;53663;42.676;23.238;2023-07-20T09:07:41;12.85;;;2.92;;
66751;SDS011;53663;42.676;23.238;2023-07-20T09:10:07;8.60;;;2.97;;
66751;SDS011;53663;42.676;23.238;2023-07-20T09:12:40;12.02;;;3.13;;
66751;SDS011;53663;42.676;23.238;2023-07-20T09:15:07;10.90;;;2.97;;
66751;SDS011;53663;42.676;23.238;2023-07-20T09:17:34;12.90;;;3.20;;
66751;SDS011;53663;42.676;23.238;2023-07-20T09:20:03;9.80;;;3.17;;
66751;SDS011;53663;42.676;23.238;2023-07-20T09:22:35;11.82;;;2.80;;
66751;SDS011;53663;42.676;23.238;2023-07-20T09:25:03;11.55;;;3.00;;
66751;SDS011;53663;42.676;23.238;2023-07-20T09:27:38;10.23;;;2.78;;
66751;SDS011;53663;42.676;23.238;2023-07-20T09:30:05;10.63;;;2.80;;
66751;SDS011;53663;42.676;23.238;2023-07-20T09:32:48;11.13;;;3.10;;
66751;SDS011;53663;42.676;23.238;2023-07-20T09:40:19;10.82;;;3.03;;
66751;SDS011;53663;42.676;23.238;2023-07-20T09:42:46;9.98;;;3.00;;
66751;SDS011;53663;42.676;23.238;2023-07-20T09:45:12;6.20;;;2.65;;
66751;SDS011;53663;42.676;23.238;2023-07-20T09:47:38;8.65;;;2.67;;
66751;SDS011;53663;42.676;23.238;2023-07-20T09:50:05;8.10;;;3.22;;
66751;SDS011;53663;42.676;23.238;2023-07-20T09:52:39;10.07;;;2.92;;
66751;SDS011;53663;42.676;23.238;2023-07-20T09:55:06;8.65;;;2.80;;
66751;SDS011;53663;42.676;23.238;2023-07-20T09:57:34;11.88;;;2.95;;
66751;SDS011;53663;42.676;23.238;2023-07-20T10:00:01;9.43;;;3.05;;
66751;SDS011;53663;42.676;23.238;2023-07-20T10:02:40;7.22;;;2.75;;
66751;SDS011;53663;42.676;23.238;2023-07-20T10:05:08;10.75;;;2.97;;
66751;SDS011;53663;42.676;23.238;2023-07-20T10:07:39;9.52;;;2.60;;
66751;SDS011;53663;42.676;23.238;2023-07-20T10:10:08;9.23;;;2.47;;
66751;SDS011;53663;42.676;23.238;2023-07-20T10:12:36;11.57;;;2.83;;
66751;SDS011;53663;42.676;23.238;2023-07-20T10:15:11;7.28;;;2.50;;
66751;SDS011;53663;42.676;23.238;2023-07-20T10:17:45;18.42;;;3.10;;
66751;SDS011;53663;42.676;23.238;2023-07-20T10:20:18;12.10;;;3.17;;
66751;SDS011;53663;42.676;23.238;2023-07-20T10:22:46;9.20;;;2.67;;
66751;SDS011;53663;42.676;23.238;2023-07-20T10:25:14;9.07;;;3.03;;
66751;SDS011;53663;42.676;23.238;2023-07-20T10:27:40;11.35;;;2.60;;
66751;SDS011;53663;42.676;23.238;2023-07-20T10:30:06;11.15;;;2.80;;
66751;SDS011;53663;42.676;23.238;2023-07-20T10:32:32;10.73;;;3.65;;
66751;SDS011;53663;42.676;23.238;2023-07-20T10:34:59;8.63;;;2.80;;
66751;SDS011;53663;42.676;23.238;2023-07-20T10:40:26;9.13;;;3.13;;
66751;SDS011;53663;42.676;23.238;2023-07-20T10:45:39;14.52;;;3.00;;
66751;SDS011;53663;42.676;23.238;2023-07-20T10:48:20;9.88;;;2.65;;
66751;SDS011;53663;42.676;23.238;2023-07-20T10:53:39;10.95;;;2.78;;
66751;SDS011;53663;42.676;23.238;2023-07-20T10:56:05;7.00;;;2.90;;
66751;SDS011;53663;42.676;23.238;2023-07-20T10:58:32;8.27;;;2.83;;
66751;SDS011;53663;42.676;23.238;2023-07-20T11:01:03;13.75;;;3.65;;
66751;SDS011;53663;42.676;23.238;2023-07-20T11:03:30;8.68;;;2.90;;
66751;SDS011;53663;42.676;23.238;2023-07-20T11:05:57;11.75;;;3.65;;
66751;SDS011;53663;42.676;23.238;2023-07-20T11:08:39;10.88;;;3.80;;
66751;SDS011;53663;42.676;23.238;2023-07-20T11:11:27;10.13;;;3.53;;
66751;SDS011;53663;42.676;23.238;2023-07-20T11:13:56;13.02;;;3.50;;
66751;SDS011;53663;42.676;23.238;2023-07-20T11:16:37;9.55;;;3.45;;
66751;SDS011;53663;42.676;23.238;2023-07-20T11:19:20;14.07;;;3.72;;
66751;SDS011;53663;42.676;23.238;2023-07-20T11:21:50;6.63;;;3.75;;
66751;SDS011;53663;42.676;23.238;2023-07-20T11:24:19;14.85;;;3.45;;
66751;SDS011;53663;42.676;23.238;2023-07-20T11:26:49;13.48;;;3.97;;
66751;SDS011;53663;42.676;23.238;2023-07-20T11:29:19;6.88;;;3.53;;
66751;SDS011;53663;42.676;23.238;2023-07-20T11:31:46;10.05;;;4.03;;
66751;SDS011;53663;42.676;23.238;2023-07-20T11:36:42;8.15;;;3.58;;
66751;SDS011;53663;42.676;23.238;2023-07-20T11:39:09;7.47;;;2.92;;
66751;SDS011;53663;42.676;23.238;2023-07-20T11:41:35;11.65;;;3.83;;
66751;SDS011;53663;42.676;23.238;2023-07-20T11:44:01;11.25;;;3.33;;
66751;SDS011;53663;42.676;23.238;2023-07-20T11:46:27;11.32;;;3.22;;
66751;SDS011;53663;42.676;23.238;2023-07-20T11:48:57;10.13;;;3.25;;
66751;SDS011;53663;42.676;23.238;2023-07-20T11:51:25;12.98;;;3.83;;
66751;SDS011;53663;42.676;23.238;2023-07-20T11:53:55;12.27;;;3.80;;
66751;SDS011;53663;42.676;23.238;2023-07-20T11:56:24;8.07;;;3.78;;
66751;SDS011;53663;42.676;23.238;2023-07-20T11:58:53;9.93;;;3.17;;
66751;SDS011;53663;42.676;23.238;2023-07-20T12:01:20;9.45;;;3.78;;
66751;SDS011;53663;42.676;23.238;2023-07-20T12:03:45;11.75;;;3.53;;
66751;SDS011;53663;42.676;23.238;2023-07-20T12:06:12;12.32;;;3.38;;
66751;SDS011;53663;42.676;23.238;2023-07-20T12:08:39;13.73;;;3.55;;
66751;SDS011;53663;42.676;23.238;2023-07-20T12:11:06;9.98;;;3.72;;
66751;SDS011;53663;42.676;23.238;2023-07-20T12:13:42;9.43;;;3.30;;
66751;SDS011;53663;42.676;23.238;2023-07-20T12:16:10;8.55;;;3.20;;
66751;SDS011;53663;42.676;23.238;2023-07-20T12:18:44;9.05;;;3.53;;
66751;SDS011;53663;42.676;23.238;2023-07-20T12:21:10;16.38;;;3.55;;
66751;SDS011;53663;42.676;23.238;2023-07-20T12:23:40;10.48;;;3.67;;
66751;SDS011;53663;42.676;23.238;2023-07-20T12:26:09;11.10;;;3.20;;
66751;SDS011;53663;42.676;23.238;2023-07-20T12:28:36;17.60;;;3.42;;
66751;SDS011;53663;42.676;23.238;2023-07-20T12:33:31;13.70;;;3.22;;
66751;SDS011;53663;42.676;23.238;2023-07-20T12:35:57;16.55;;;3.55;;
66751;SDS011;53663;42.676;23.238;2023-07-20T12:38:24;10.38;;;3.17;;
66751;SDS011;53663;42.676;23.238;2023-07-20T12:40:50;14.40;;;3.67;;
66751;SDS011;53663;42.676;23.238;2023-07-20T12:43:16;8.00;;;3.40;;
66751;SDS011;53663;42.676;23.238;2023-07-20T12:45:42;10.65;;;3.63;;
66751;SDS011;53663;42.676;23.238;2023-07-20T12:48:08;12.00;;;3.67;;
66751;SDS011;53663;42.676;23.238;2023-07-20T12:50:34;9.05;;;3.50;;
66751;SDS011;53663;42.676;23.238;2023-07-20T12:52:59;10.93;;;4.07;;
66751;SDS011;53663;42.676;23.238;2023-07-20T12:55:25;8.55;;;3.35;;
66751;SDS011;53663;42.676;23.238;2023-07-20T12:57:50;15.13;;;3.53;;
66751;SDS011;53663;42.676;23.238;2023-07-20T13:00:16;18.15;;;3.80;;
66751;SDS011;53663;42.676;23.238;2023-07-20T13:02:42;6.88;;;3.08;;
66751;SDS011;53663;42.676;23.238;2023-07-20T13:05:08;8.25;;;3.33;;
66751;SDS011;53663;42.676;23.238;2023-07-20T13:07:35;11.50;;;3.45;;
66751;SDS011;53663;42.676;23.238;2023-07-20T13:10:03;9.23;;;3.30;;
66751;SDS011;53663;42.676;23.238;2023-07-20T13:12:30;17.40;;;3.75;;
66751;SDS011;53663;42.676;23.238;2023-07-20T13:14:57;6.00;;;2.95;;
66751;SDS011;53663;42.676;23.238;2023-07-20T13:17:26;8.68;;;3.60;;
66751;SDS011;53663;42.676;23.238;2023-07-20T13:19:52;12.60;;;3.50;;
66751;SDS011;53663;42.676;23.238;2023-07-20T13:22:18;13.48;;;3.28;;
66751;SDS011;53663;42.676;23.238;2023-07-20T13:24:44;11.30;;;3.28;;
66751;SDS011;53663;42.676;23.238;2023-07-20T13:27:16;9.60;;;3.42;;
66751;SDS011;53663;42.676;23.238;2023-07-20T13:29:43;9.73;;;3.63;;
66751;SDS011;53663;42.676;23.238;2023-07-20T13:32:09;10.80;;;3.22;;
66751;SDS011;53663;42.676;23.238;2023-07-20T13:34:35;11.77;;;3.33;;
66751;SDS011;53663;42.676;23.238;2023-07-20T13:37:02;8.13;;;3.50;;
66751;SDS011;53663;42.676;23.238;2023-07-20T13:39:28;11.77;;;3.30;;
66751;SDS011;53663;42.676;23.238;2023-07-20T13:41:53;10.40;;;3.35;;
66751;SDS011;53663;42.676;23.238;2023-07-20T13:44:19;13.38;;;3.47;;
66751;SDS011;53663;42.676;23.238;2023-07-20T13:46:46;13.38;;;3.33;;
66751;SDS011;53663;42.676;23.238;2023-07-20T13:49:12;11.85;;;2.85;;
66751;SDS011;53663;42.676;23.238;2023-07-20T13:51:37;10.00;;;3.80;;
66751;SDS011;53663;42.676;23.238;2023-07-20T13:54:03;11.43;;;5.68;;
66751;SDS011;53663;42.676;23.238;2023-07-20T13:56:29;10.30;;;2.90;;
66751;SDS011;53663;42.676;23.238;2023-07-20T13:58:54;8.70;;;3.33;;
66751;SDS011;53663;42.676;23.238;2023-07-20T14:01:20;10.30;;;3.20;;
66751;SDS011;53663;42.676;23.238;2023-07-20T14:03:48;7.30;;;2.90;;
66751;SDS011;53663;42.676;23.238;2023-07-20T14:06:14;8.70;;;2.85;;
66751;SDS011;53663;42.676;23.238;2023-07-20T14:08:40;9.45;;;3.10;;
66751;SDS011;53663;42.676;23.238;2023-07-20T14:11:06;7.63;;;2.92;;
66751;SDS011;53663;42.676;23.238;2023-07-20T14:13:32;8.88;;;2.65;;
66751;SDS011;53663;42.676;23.238;2023-07-20T14:15:58;12.07;;;3.38;;
66751;SDS011;53663;42.676;23.238;2023-07-20T14:18:23;11.40;;;3.47;;
66751;SDS011;53663;42.676;23.238;2023-07-20T14:20:49;13.10;;;2.60;;
66751;SDS011;53663;42.676;23.238;2023-07-20T14:23:14;7.05;;;2.90;;
66751;SDS011;53663;42.676;23.238;2023-07-20T14:25:40;9.10;;;3.40;;
66751;SDS011;53663;42.676;23.238;2023-07-20T14:28:06;10.13;;;2.88;;
66751;SDS011;53663;42.676;23.238;2023-07-20T14:30:32;11.13;;;3.13;;
66751;SDS011;53663;42.676;23.238;2023-07-20T14:32:58;9.02;;;4.10;;
66751;SDS011;53663;42.676;23.238;2023-07-20T14:35:23;11.27;;;3.13;;
66751;SDS011;53663;42.676;23.238;2023-07-20T14:37:49;13.05;;;3.20;;
66751;SDS011;53663;42.676;23.238;2023-07-20T14:40:15;17.00;;;3.15;;
66751;SDS011;53663;42.676;23.238;2023-07-20T14:42:41;13.38;;;3.42;;
66751;SDS011;53663;42.676;23.238;2023-07-20T14:45:06;10.10;;;3.40;;
66751;SDS011;53663;42.676;23.238;2023-07-20T14:47:33;7.35;;;2.80;;
66751;SDS011;53663;42.676;23.238;2023-07-20T14:50:00;7.85;;;3.47;;